createdAt,value
2023-01-21T00:01:19.518Z,9.73
2023-01-21T00:03:46.968Z,7.70
2023-01-21T00:06:15.120Z,7.63
2023-01-21T00:08:42.875Z,7.30
2023-01-21T00:11:17.087Z,7.70
2023-01-21T00:13:44.938Z,8.63
2023-01-21T00:16:13.162Z,8.30
2023-01-21T00:18:41.329Z,7.60
2023-01-21T00:21:08.975Z,6.67
2023-01-21T00:23:36.869Z,9.90
2023-01-21T00:26:06.174Z,9.73
2023-01-21T00:28:35.596Z,10.80
2023-01-21T00:31:05.243Z,9.40
2023-01-21T00:33:32.717Z,10.07
2023-01-21T00:36:05.701Z,9.20
2023-01-21T00:38:33.714Z,7.43
2023-01-21T00:41:08.237Z,9.87
2023-01-21T00:43:35.902Z,9.00
2023-01-21T00:46:04.023Z,10.83
2023-01-21T00:48:32.253Z,10.00
2023-01-21T00:51:01.085Z,8.53
2023-01-21T00:53:29.206Z,9.10
2023-01-21T00:56:00.234Z,9.67
2023-01-21T00:58:28.183Z,9.37
2023-01-21T01:01:06.604Z,9.53
2023-01-21T01:03:34.264Z,6.47
2023-01-21T01:06:04.662Z,7.30
2023-01-21T01:08:32.910Z,9.20
2023-01-21T01:11:03.446Z,8.43
2023-01-21T01:13:31.655Z,9.97
2023-01-21T01:16:00.220Z,9.63
2023-01-21T01:18:28.441Z,8.77
2023-01-21T01:20:56.687Z,7.37
2023-01-21T01:23:24.461Z,8.97
2023-01-21T01:25:59.223Z,8.47
2023-01-21T01:28:26.493Z,8.10
2023-01-21T01:30:54.416Z,6.67
2023-01-21T01:33:22.226Z,7.97
2023-01-21T01:35:49.904Z,8.80
2023-01-21T01:38:17.691Z,6.70
2023-01-21T01:40:46.103Z,7.00
2023-01-21T01:43:22.542Z,6.57
2023-01-21T01:45:50.521Z,9.30
2023-01-21T01:48:27.368Z,7.33
2023-01-21T01:50:56.097Z,8.43
2023-01-21T01:53:30.399Z,8.73
2023-01-21T01:55:57.648Z,9.27
2023-01-21T01:58:24.822Z,12.37
2023-01-21T02:00:53.002Z,9.83
2023-01-21T02:03:38.264Z,8.27
2023-01-21T02:06:06.833Z,7.37
2023-01-21T02:08:34.525Z,9.63
2023-01-21T02:11:02.835Z,9.17
2023-01-21T02:13:31.304Z,8.70
2023-01-21T02:16:04.573Z,9.43
2023-01-21T02:18:38.979Z,7.30
2023-01-21T02:21:20.836Z,8.20
2023-01-21T02:24:17.393Z,7.50
2023-01-21T02:27:30.703Z,11.30
2023-01-21T02:30:22.463Z,9.17
2023-01-21T02:33:08.832Z,11.60
2023-01-21T02:35:53.889Z,10.67
2023-01-21T02:38:31.601Z,13.00
2023-01-21T02:41:01.447Z,9.33
2023-01-21T02:43:43.061Z,7.67
2023-01-21T02:46:13.084Z,9.23
2023-01-21T02:48:41.785Z,9.10
2023-01-21T02:51:08.893Z,10.00
2023-01-21T02:53:36.357Z,7.57
2023-01-21T02:56:09.277Z,13.80
2023-01-21T02:58:39.906Z,9.70
2023-01-21T03:01:27.828Z,10.83
2023-01-21T03:04:16.415Z,8.67
2023-01-21T03:07:00.468Z,10.70
2023-01-21T03:09:29.081Z,12.50
2023-01-21T03:11:56.102Z,13.60
2023-01-21T03:15:11.581Z,10.73
2023-01-21T03:18:09.470Z,13.77
2023-01-21T03:20:48.781Z,10.02
2023-01-21T03:23:18.573Z,10.60
2023-01-21T03:25:45.710Z,11.33
2023-01-21T03:28:14.593Z,9.07
2023-01-21T03:30:43.412Z,13.33
2023-01-21T03:33:10.701Z,10.87
2023-01-21T03:35:41.255Z,10.77
2023-01-21T03:38:17.940Z,11.73
2023-01-21T03:40:53.655Z,11.80
2023-01-21T03:43:21.117Z,14.73
2023-01-21T03:45:54.993Z,13.97
2023-01-21T03:48:43.653Z,11.50
2023-01-21T03:51:16.077Z,12.60
2023-01-21T03:53:43.207Z,14.23
2023-01-21T03:56:28.895Z,13.83
2023-01-21T03:58:56.543Z,11.30
2023-01-21T04:01:24.330Z,11.27
2023-01-21T04:03:52.164Z,11.23
2023-01-21T04:06:20.655Z,9.57
2023-01-21T04:08:48.848Z,15.40
2023-01-21T04:11:17.143Z,15.00
2023-01-21T04:13:47.153Z,12.93
2023-01-21T04:16:15.257Z,12.60
2023-01-21T04:18:43.541Z,11.70
2023-01-21T04:21:11.123Z,14.37
2023-01-21T04:23:39.250Z,12.67
2023-01-21T04:26:07.708Z,12.07
2023-01-21T04:28:35.860Z,15.07
2023-01-21T04:31:03.437Z,12.13
2023-01-21T04:33:31.482Z,12.40
2023-01-21T04:35:59.700Z,11.80
2023-01-21T04:38:28.197Z,13.23
2023-01-21T04:40:59.635Z,12.43
2023-01-21T04:43:27.656Z,13.50
2023-01-21T04:45:55.936Z,14.17
2023-01-21T04:48:23.919Z,16.30
2023-01-21T04:50:52.435Z,11.77
2023-01-21T04:53:20.440Z,11.67
2023-01-21T04:55:48.500Z,12.60
2023-01-21T04:58:16.734Z,15.67
2023-01-21T05:00:44.739Z,13.80
2023-01-21T05:03:12.651Z,15.73
2023-01-21T05:05:41.070Z,19.60
2023-01-21T05:08:10.171Z,20.93
2023-01-21T05:10:37.831Z,15.37
2023-01-21T05:13:05.792Z,16.43
2023-01-21T05:15:33.930Z,13.80
2023-01-21T05:18:01.678Z,13.90
2023-01-21T05:20:29.254Z,11.53
2023-01-21T05:22:58.111Z,12.73
2023-01-21T05:25:26.195Z,16.93
2023-01-21T05:27:54.287Z,10.70
2023-01-21T05:30:23.020Z,13.33
2023-01-21T05:32:52.239Z,12.93
2023-01-21T05:35:42.856Z,16.27
2023-01-21T05:38:10.829Z,13.23
2023-01-21T05:40:38.567Z,11.90
2023-01-21T05:43:06.233Z,17.27
2023-01-21T05:45:34.328Z,26.57
2023-01-21T05:48:02.178Z,24.00
2023-01-21T05:50:32.315Z,22.73
2023-01-21T05:52:59.868Z,17.53
2023-01-21T05:55:27.936Z,16.87
2023-01-21T05:57:56.190Z,15.37
2023-01-21T06:00:24.315Z,19.60
2023-01-21T06:02:52.339Z,11.43
2023-01-21T06:05:20.595Z,14.03
2023-01-21T06:07:48.753Z,13.53
2023-01-21T06:10:17.475Z,14.80
2023-01-21T06:12:45.728Z,15.23
2023-01-21T06:15:14.033Z,13.00
2023-01-21T06:17:49.316Z,11.47
2023-01-21T06:20:18.033Z,17.03
2023-01-21T06:22:45.958Z,12.60
2023-01-21T06:25:13.962Z,15.43
2023-01-21T06:27:42.171Z,20.93
2023-01-21T06:30:12.710Z,19.80
2023-01-21T06:32:40.558Z,14.00
2023-01-21T06:35:10.498Z,14.17
2023-01-21T06:37:39.877Z,13.83
2023-01-21T06:40:11.530Z,12.20
2023-01-21T06:42:39.553Z,14.50
2023-01-21T06:45:09.743Z,16.87
2023-01-21T06:47:39.986Z,13.70
2023-01-21T06:50:10.154Z,16.07
2023-01-21T06:52:42.835Z,18.63
2023-01-21T06:55:10.879Z,13.80
2023-01-21T06:57:38.479Z,10.63
2023-01-21T07:00:06.297Z,16.37
2023-01-21T07:02:34.578Z,17.97
2023-01-21T07:05:02.779Z,15.73
2023-01-21T07:07:30.857Z,18.87
2023-01-21T07:10:00.450Z,14.60
2023-01-21T07:12:28.062Z,14.10
2023-01-21T07:14:56.239Z,12.70
2023-01-21T07:17:23.763Z,16.37
2023-01-21T07:19:52.215Z,17.10
2023-01-21T07:22:19.677Z,16.43
2023-01-21T07:24:47.801Z,14.07
2023-01-21T07:27:16.258Z,14.00
2023-01-21T07:29:43.850Z,13.30
2023-01-21T07:32:12.151Z,13.00
2023-01-21T07:34:40.328Z,15.53
2023-01-21T07:37:08.561Z,11.47
2023-01-21T07:39:36.594Z,14.20
2023-01-21T07:42:04.877Z,10.40
2023-01-21T07:44:34.160Z,16.47
2023-01-21T07:47:05.489Z,16.80
2023-01-21T07:49:33.069Z,17.63
2023-01-21T07:52:00.617Z,11.77
2023-01-21T07:54:29.133Z,12.20
2023-01-21T07:56:57.157Z,17.77
2023-01-21T07:59:25.268Z,17.70
2023-01-21T08:01:53.043Z,20.60
2023-01-21T08:04:22.096Z,15.47
2023-01-21T08:06:51.117Z,11.47
2023-01-21T08:09:19.063Z,15.70
2023-01-21T08:11:47.302Z,16.67
2023-01-21T08:14:15.497Z,12.27
2023-01-21T08:16:43.053Z,11.73
2023-01-21T08:19:13.053Z,11.70
2023-01-21T08:21:41.950Z,14.67
2023-01-21T08:24:10.690Z,19.97
2023-01-21T08:26:38.793Z,16.60
2023-01-21T08:29:06.388Z,17.37
2023-01-21T08:31:35.195Z,13.67
2023-01-21T08:34:03.462Z,16.00
2023-01-21T08:36:31.357Z,16.23
2023-01-21T08:38:59.353Z,20.73
2023-01-21T08:41:26.906Z,14.83
2023-01-21T08:43:54.911Z,14.63
2023-01-21T08:46:22.859Z,14.53
2023-01-21T08:48:51.186Z,19.10
2023-01-21T08:51:19.138Z,18.27
2023-01-21T08:53:48.868Z,23.03
2023-01-21T08:56:17.126Z,26.00
2023-01-21T08:58:44.896Z,18.13
2023-01-21T09:01:14.112Z,18.77
2023-01-21T09:03:41.933Z,23.47
2023-01-21T09:06:11.300Z,20.20
2023-01-21T09:08:39.396Z,21.57
2023-01-21T09:11:09.333Z,16.33
2023-01-21T09:13:38.802Z,21.00
2023-01-21T09:16:36.431Z,24.03
2023-01-21T09:19:04.113Z,25.58
2023-01-21T09:21:31.879Z,21.87
2023-01-21T09:24:00.228Z,21.43
2023-01-21T09:26:28.333Z,17.93
2023-01-21T09:28:57.204Z,21.27
2023-01-21T09:31:29.280Z,26.07
2023-01-21T09:34:20.201Z,25.90
2023-01-21T09:36:48.309Z,31.07
2023-01-21T09:39:16.450Z,24.53
2023-01-21T09:41:49.945Z,26.70
2023-01-21T09:44:26.321Z,26.07
2023-01-21T09:47:17.064Z,19.92
2023-01-21T09:50:06.128Z,15.23
2023-01-21T09:52:46.410Z,14.20
2023-01-21T09:55:18.601Z,18.73
2023-01-21T09:58:07.519Z,14.13
2023-01-21T10:00:36.397Z,12.90
2023-01-21T10:03:09.047Z,16.77
2023-01-21T10:06:00.467Z,17.67
2023-01-21T10:08:48.540Z,39.07
2023-01-21T10:11:26.417Z,63.77
2023-01-21T10:14:14.785Z,35.43
2023-01-21T10:16:44.788Z,14.10
2023-01-21T10:19:19.876Z,17.87
2023-01-21T10:21:50.960Z,7.70
2023-01-21T10:24:24.447Z,6.60
2023-01-21T10:26:53.317Z,5.17
2023-01-21T10:29:23.317Z,22.13
2023-01-21T10:32:02.986Z,13.17
2023-01-21T10:34:34.571Z,6.37
2023-01-21T10:37:32.787Z,6.13
2023-01-21T10:40:05.309Z,4.18
2023-01-21T10:42:57.132Z,4.63
2023-01-21T10:45:38.769Z,4.77
2023-01-21T10:48:32.994Z,5.87
2023-01-21T10:51:29.797Z,4.97
2023-01-21T10:54:03.431Z,3.30
2023-01-21T10:56:57.958Z,3.57
2023-01-21T10:59:28.279Z,4.47
2023-01-21T11:02:18.336Z,6.33
2023-01-21T11:04:51.674Z,8.33
2023-01-21T11:07:20.102Z,5.07
2023-01-21T11:09:48.053Z,12.37
2023-01-21T11:12:19.924Z,10.10
2023-01-21T11:15:15.123Z,6.83
2023-01-21T11:17:42.737Z,10.37
2023-01-21T11:20:22.022Z,6.80
2023-01-21T11:22:49.464Z,8.17
2023-01-21T11:25:27.191Z,6.37
2023-01-21T11:27:55.158Z,6.90
2023-01-21T11:30:49.697Z,4.57
2023-01-21T11:33:23.938Z,2.47
2023-01-21T11:35:52.353Z,7.67
2023-01-21T11:38:34.646Z,5.63
2023-01-21T11:41:21.212Z,1.47
2023-01-21T11:43:51.063Z,5.82
2023-01-21T11:46:42.704Z,4.93
2023-01-21T11:49:09.625Z,4.60
2023-01-21T11:51:38.848Z,7.43
2023-01-21T11:54:20.647Z,3.77
2023-01-21T11:57:00.634Z,2.23
2023-01-21T11:59:36.599Z,2.27
2023-01-21T12:02:27.771Z,4.53
2023-01-21T12:04:58.313Z,4.40
2023-01-21T12:07:29.844Z,4.23
2023-01-21T12:10:08.413Z,4.20
2023-01-21T12:12:35.343Z,5.40
2023-01-21T12:15:11.556Z,2.27
2023-01-21T12:18:26.589Z,3.03
2023-01-21T12:21:14.717Z,5.20
2023-01-21T12:23:41.742Z,4.57
2023-01-21T12:26:31.037Z,4.90
2023-01-21T12:29:21.738Z,5.50
2023-01-21T12:31:57.411Z,4.83
2023-01-21T12:34:24.498Z,5.37
2023-01-21T12:37:16.888Z,4.27
2023-01-21T12:39:44.504Z,7.67
2023-01-21T12:42:17.274Z,8.40
2023-01-21T12:45:14.497Z,12.13
2023-01-21T12:48:04.498Z,17.13
2023-01-21T12:50:31.294Z,13.10
2023-01-21T12:53:10.163Z,10.13
2023-01-21T12:56:01.895Z,8.70
2023-01-21T12:58:33.401Z,9.93
2023-01-21T13:01:07.311Z,11.57
2023-01-21T13:03:53.535Z,8.77
2023-01-21T13:06:47.228Z,10.30
2023-01-21T13:09:22.671Z,11.67
2023-01-21T13:11:55.208Z,9.07
2023-01-21T13:15:11.892Z,7.60
2023-01-21T13:17:39.788Z,8.77
2023-01-21T13:20:20.898Z,7.20
2023-01-21T13:23:03.263Z,6.13
2023-01-21T13:25:48.668Z,8.23
2023-01-21T13:28:22.381Z,7.63
2023-01-21T13:31:34.688Z,7.23
2023-01-21T13:34:26.446Z,6.10
2023-01-21T13:37:10.849Z,6.47
2023-01-21T13:39:52.722Z,6.87
2023-01-21T13:42:37.635Z,5.13
2023-01-21T13:45:29.853Z,5.60
2023-01-21T13:48:23.140Z,9.90
2023-01-21T13:50:59.164Z,16.60
2023-01-21T13:53:42.231Z,9.47
2023-01-21T13:56:17.882Z,10.90
2023-01-21T13:59:08.499Z,9.40
2023-01-21T14:01:45.744Z,9.93
2023-01-21T14:04:44.439Z,7.07
2023-01-21T14:07:16.758Z,7.00
2023-01-21T14:10:04.620Z,9.57
2023-01-21T14:12:50.220Z,9.23
2023-01-21T14:15:30.223Z,10.40
2023-01-21T14:18:32.692Z,7.50
2023-01-21T14:21:11.946Z,11.73
2023-01-21T14:23:47.339Z,9.23
2023-01-21T14:26:20.033Z,13.43
2023-01-21T14:29:12.673Z,13.90
2023-01-21T14:31:44.949Z,27.07
2023-01-21T14:34:40.182Z,18.13
2023-01-21T14:37:11.248Z,15.07
2023-01-21T14:40:12.128Z,11.37
2023-01-21T14:42:50.224Z,8.80
2023-01-21T14:45:20.407Z,9.63
2023-01-21T14:47:49.020Z,10.43
2023-01-21T14:50:51.868Z,10.40
2023-01-21T14:53:49.262Z,12.70
2023-01-21T14:56:24.096Z,13.10
2023-01-21T14:59:08.258Z,10.50
2023-01-21T15:01:39.824Z,12.90
2023-01-21T15:04:20.937Z,7.37
2023-01-21T15:06:48.737Z,9.43
2023-01-21T15:09:25.625Z,9.30
2023-01-21T15:11:56.539Z,11.05
2023-01-21T15:14:25.794Z,9.20
2023-01-21T15:16:53.914Z,10.47
2023-01-21T15:19:26.527Z,9.23
2023-01-21T15:21:59.910Z,12.60
2023-01-21T15:24:30.082Z,13.30
2023-01-21T15:27:17.006Z,14.70
2023-01-21T15:29:59.033Z,10.15
2023-01-21T15:32:41.618Z,10.40
2023-01-21T15:35:31.108Z,7.80
2023-01-21T15:38:40.510Z,9.77
2023-01-21T15:41:13.071Z,20.13
2023-01-21T15:43:55.202Z,15.27
2023-01-21T15:46:43.703Z,9.73
2023-01-21T15:49:28.882Z,11.67
2023-01-21T15:51:56.006Z,11.17
2023-01-21T15:54:38.175Z,8.10
2023-01-21T15:57:33.110Z,12.43
2023-01-21T16:00:23.986Z,12.13
2023-01-21T16:03:12.589Z,11.83
2023-01-21T16:06:02.761Z,10.20
2023-01-21T16:08:35.355Z,10.20
2023-01-21T16:11:08.075Z,10.10
2023-01-21T16:13:47.178Z,13.53
2023-01-21T16:16:43.897Z,12.93
2023-01-21T16:19:12.809Z,10.23
2023-01-21T16:21:41.400Z,8.47
2023-01-21T16:24:14.564Z,10.63
2023-01-21T16:26:42.845Z,10.53
2023-01-21T16:29:13.218Z,10.60
2023-01-21T16:31:59.696Z,9.90
2023-01-21T16:34:42.528Z,9.90
2023-01-21T16:37:15.249Z,8.37
2023-01-21T16:39:42.222Z,8.83
2023-01-21T16:42:20.984Z,9.20
2023-01-21T16:44:48.451Z,13.33
2023-01-21T16:47:44.105Z,25.47
2023-01-21T16:50:22.184Z,21.17
2023-01-21T16:52:49.774Z,25.73
2023-01-21T16:55:22.734Z,15.10
2023-01-21T16:57:50.663Z,10.07
2023-01-21T17:00:31.722Z,11.13
2023-01-21T17:03:23.172Z,11.83
2023-01-21T17:05:50.979Z,12.93
2023-01-21T17:08:19.434Z,14.20
2023-01-21T17:11:00.806Z,9.07
2023-01-21T17:13:28.871Z,11.70
2023-01-21T17:16:00.213Z,13.23
2023-01-21T17:18:34.887Z,10.63
2023-01-21T17:21:04.929Z,15.80
2023-01-21T17:23:34.542Z,22.77
2023-01-21T17:26:24.365Z,43.73
2023-01-21T17:28:58.528Z,51.77
2023-01-21T17:31:42.690Z,47.77
2023-01-21T17:34:16.637Z,41.47
2023-01-21T17:36:45.793Z,33.50
2023-01-21T17:39:14.144Z,22.63
2023-01-21T17:41:46.392Z,15.80
2023-01-21T17:44:21.715Z,10.23
2023-01-21T17:46:50.007Z,11.43
2023-01-21T17:49:24.928Z,10.43
2023-01-21T17:51:54.450Z,13.87
2023-01-21T17:54:41.884Z,12.17
2023-01-21T17:57:48.789Z,13.48
2023-01-21T18:00:29.254Z,16.67
2023-01-21T18:02:57.775Z,18.20
2023-01-21T18:05:25.393Z,23.93
2023-01-21T18:07:53.841Z,17.33
2023-01-21T18:10:23.623Z,13.97
2023-01-21T18:12:50.788Z,16.57
2023-01-21T18:15:20.569Z,15.33
2023-01-21T18:17:53.728Z,17.23
2023-01-21T18:20:22.656Z,13.67
2023-01-21T18:22:51.254Z,14.13
2023-01-21T18:25:19.287Z,26.03
2023-01-21T18:27:47.622Z,20.90
2023-01-21T18:30:53.103Z,19.83
2023-01-21T18:33:20.782Z,16.13
2023-01-21T18:35:48.646Z,17.63
2023-01-21T18:38:27.608Z,16.07
2023-01-21T18:40:55.730Z,15.47
2023-01-21T18:43:25.540Z,15.50
2023-01-21T18:45:54.615Z,13.40
2023-01-21T18:48:23.888Z,11.43
2023-01-21T18:50:51.910Z,16.70
2023-01-21T18:53:19.410Z,21.90
2023-01-21T18:55:49.055Z,24.53
2023-01-21T18:58:16.550Z,24.03
2023-01-21T19:00:44.604Z,21.67
2023-01-21T19:03:15.886Z,19.17
2023-01-21T19:05:43.733Z,19.63
2023-01-21T19:08:16.866Z,20.67
2023-01-21T19:10:50.154Z,29.23
2023-01-21T19:13:18.035Z,34.00
2023-01-21T19:15:46.618Z,47.50
2023-01-21T19:18:14.579Z,38.07
2023-01-21T19:20:44.450Z,48.70
2023-01-21T19:23:41.180Z,29.90
2023-01-21T19:26:08.642Z,61.80
2023-01-21T19:28:36.360Z,51.77
2023-01-21T19:31:04.570Z,75.00
2023-01-21T19:33:32.283Z,33.80
2023-01-21T19:36:11.505Z,29.73
2023-01-21T19:38:39.445Z,35.07
2023-01-21T19:41:07.750Z,30.67
2023-01-21T19:43:35.633Z,30.37
2023-01-21T19:46:03.853Z,28.50
2023-01-21T19:48:31.463Z,20.37
2023-01-21T19:50:59.363Z,20.87
2023-01-21T19:53:27.557Z,26.10
2023-01-21T19:55:54.784Z,19.97
2023-01-21T19:58:24.012Z,24.87
2023-01-21T20:00:52.782Z,21.13
2023-01-21T20:03:22.437Z,22.97
2023-01-21T20:05:52.125Z,29.00
2023-01-21T20:08:21.804Z,26.93
2023-01-21T20:10:48.971Z,28.67
2023-01-21T20:13:17.958Z,29.73
2023-01-21T20:15:46.327Z,30.70
2023-01-21T20:18:25.115Z,24.40
2023-01-21T20:20:52.718Z,18.77
2023-01-21T20:23:20.710Z,21.43
2023-01-21T20:25:51.118Z,16.27
2023-01-21T20:28:22.506Z,13.80
2023-01-21T20:30:51.057Z,13.70
2023-01-21T20:33:20.135Z,20.73
2023-01-21T20:35:47.831Z,18.20
2023-01-21T20:38:15.224Z,14.33
2023-01-21T20:40:43.450Z,16.77
2023-01-21T20:43:11.431Z,19.40
2023-01-21T20:45:42.090Z,15.93
2023-01-21T20:48:14.663Z,16.50
2023-01-21T20:50:42.743Z,21.30
2023-01-21T20:53:12.228Z,22.30
2023-01-21T20:55:39.995Z,19.93
2023-01-21T20:58:07.926Z,22.97
2023-01-21T21:00:36.216Z,20.50
2023-01-21T21:03:04.634Z,20.07
2023-01-21T21:05:32.640Z,17.83
2023-01-21T21:08:00.584Z,20.13
2023-01-21T21:10:39.068Z,24.93
2023-01-21T21:13:06.865Z,33.10
2023-01-21T21:15:34.648Z,23.37
2023-01-21T21:18:03.237Z,47.33
2023-01-21T21:20:35.322Z,48.23
2023-01-21T21:23:03.434Z,40.47
2023-01-21T21:25:38.727Z,31.33
2023-01-21T21:28:06.086Z,29.40
2023-01-21T21:30:33.753Z,26.53
2023-01-21T21:33:01.401Z,20.90
2023-01-21T21:35:36.503Z,18.00
2023-01-21T21:38:26.112Z,17.33
2023-01-21T21:40:53.844Z,17.43
2023-01-21T21:43:35.715Z,19.57
2023-01-21T21:46:28.703Z,16.30
2023-01-21T21:49:02.071Z,15.63
2023-01-21T21:51:31.734Z,20.90
2023-01-21T21:53:59.737Z,17.60
2023-01-21T21:56:27.875Z,15.93
2023-01-21T21:58:55.748Z,18.43
2023-01-21T22:01:29.521Z,16.83
2023-01-21T22:04:01.033Z,14.80
2023-01-21T22:06:34.485Z,17.03
2023-01-21T22:09:02.553Z,15.47
2023-01-21T22:11:33.661Z,14.93
2023-01-21T22:14:04.119Z,13.73
2023-01-21T22:16:32.571Z,15.77
2023-01-21T22:19:00.364Z,13.23
2023-01-21T22:21:34.488Z,14.87
2023-01-21T22:24:02.467Z,15.53
2023-01-21T22:26:29.984Z,13.77
2023-01-21T22:28:58.665Z,14.90
2023-01-21T22:31:28.274Z,14.23
2023-01-21T22:33:57.319Z,15.13
2023-01-21T22:36:26.175Z,15.10
2023-01-21T22:38:54.140Z,19.27
2023-01-21T22:41:23.334Z,16.77
2023-01-21T22:43:51.173Z,13.30
2023-01-21T22:46:21.287Z,17.90
2023-01-21T22:48:48.671Z,14.07
2023-01-21T22:51:16.835Z,22.23
2023-01-21T22:53:45.273Z,16.50
2023-01-21T22:56:50.852Z,13.93
2023-01-21T22:59:19.210Z,17.93
2023-01-21T23:01:48.742Z,17.43
2023-01-21T23:04:17.720Z,15.57
2023-01-21T23:06:45.803Z,13.90
2023-01-21T23:09:16.553Z,16.20
2023-01-21T23:11:45.099Z,19.83
2023-01-21T23:14:13.108Z,15.97
2023-01-21T23:16:40.890Z,16.00
2023-01-21T23:19:09.027Z,21.43
2023-01-21T23:21:38.513Z,17.97
2023-01-21T23:24:08.067Z,17.80
2023-01-21T23:26:38.599Z,14.37
2023-01-21T23:29:06.312Z,17.70
2023-01-21T23:31:34.400Z,19.20
2023-01-21T23:34:03.304Z,15.87
2023-01-21T23:36:30.991Z,17.53
2023-01-21T23:38:59.087Z,17.37
2023-01-21T23:41:26.936Z,16.10
2023-01-21T23:43:55.136Z,15.60
2023-01-21T23:46:22.898Z,14.97
2023-01-21T23:48:50.550Z,14.33
2023-01-21T23:51:18.847Z,19.03
2023-01-21T23:53:49.977Z,19.10
2023-01-21T23:56:20.295Z,18.20
2023-01-21T23:58:48.050Z,16.27
